createdAt,value
2022-11-21T00:13:01.884Z,1006.7
2022-11-21T00:27:58.134Z,1006.7
2022-11-21T00:42:54.149Z,1006.6
2022-11-21T00:57:50.550Z,1006.5
2022-11-21T01:12:46.665Z,1006.5
2022-11-21T01:27:42.541Z,1006.5
2022-11-21T01:42:38.363Z,1006.6
2022-11-21T01:57:34.565Z,1006.6
2022-11-21T02:12:30.530Z,1006.6
2022-11-21T02:27:26.150Z,1006.6
2022-11-21T02:42:22.066Z,1006.6
2022-11-21T02:57:18.400Z,1006.5
2022-11-21T03:12:14.386Z,1006.7
2022-11-21T03:27:10.221Z,1006.9
2022-11-21T03:42:06.893Z,1006.9
2022-11-21T03:57:03.045Z,1006.9
2022-11-21T04:11:58.841Z,1006.8
2022-11-21T04:26:55.163Z,1006.8
2022-11-21T04:41:51.611Z,1006.8
2022-11-21T04:56:47.531Z,1006.8
2022-11-21T05:11:43.687Z,1006.8
2022-11-21T05:26:40.000Z,1006.8
2022-11-21T05:41:35.912Z,1006.7
2022-11-21T05:56:32.067Z,1006.8
2022-11-21T06:11:28.026Z,1006.7
2022-11-21T06:26:24.068Z,1006.7
2022-11-21T06:41:20.100Z,1006.7
2022-11-21T06:56:16.086Z,1006.7
2022-11-21T07:11:28.015Z,1006.8
2022-11-21T07:26:09.433Z,1006.8
2022-11-21T07:41:05.922Z,1006.9
2022-11-21T07:56:01.896Z,1006.8
2022-11-21T08:10:58.631Z,1006.6
2022-11-21T08:25:54.968Z,1006.8
2022-11-21T08:40:51.319Z,1006.7
2022-11-21T08:55:47.617Z,1006.7
2022-11-21T09:10:43.511Z,1006.5
2022-11-21T09:25:39.670Z,1006.2
2022-11-21T09:40:35.775Z,1006.3
2022-11-21T09:55:32.520Z,1006.1
2022-11-21T10:10:29.261Z,1005.8
2022-11-21T10:25:27.360Z,1005.7
2022-11-21T10:40:22.588Z,1005.4
2022-11-21T10:55:18.521Z,1005.3
2022-11-21T11:10:14.069Z,1005
2022-11-21T11:25:10.412Z,1004.8
2022-11-21T11:40:06.904Z,1004.4
2022-11-21T11:55:03.547Z,1004.1
2022-11-21T12:09:59.764Z,1004
2022-11-21T12:24:55.839Z,1003.7
2022-11-21T12:39:52.082Z,1003.3
2022-11-21T12:54:49.527Z,1003.2
2022-11-21T13:09:45.371Z,1003.1
2022-11-21T13:24:41.493Z,1002.9
2022-11-21T13:39:37.835Z,1002.6
2022-11-21T13:54:34.326Z,1002.3
2022-11-21T14:09:30.546Z,1001.9
2022-11-21T14:24:26.222Z,1001.5
2022-11-21T14:39:36.369Z,1001.4
2022-11-21T14:54:17.598Z,1000.9
2022-11-21T15:39:06.510Z,999.9
2022-11-21T15:54:02.373Z,999.5
2022-11-21T16:08:58.961Z,999.3
2022-11-21T16:23:54.814Z,999.1
2022-11-21T16:38:50.985Z,999
2022-11-21T16:53:48.098Z,998.6
2022-11-21T17:08:43.482Z,997.7
2022-11-21T17:23:39.064Z,997.8
2022-11-21T17:38:35.374Z,998
2022-11-21T17:53:31.592Z,997.8
2022-11-21T18:08:27.797Z,998.1
2022-11-21T18:23:24.145Z,998.2
2022-11-21T18:38:46.603Z,997.9
2022-11-21T18:53:16.585Z,997.7
2022-11-21T19:08:13.185Z,997.6
2022-11-21T19:23:09.576Z,997.3
2022-11-21T19:38:06.142Z,997.1
2022-11-21T19:53:02.065Z,996.8
2022-11-21T20:08:03.895Z,996.6
2022-11-21T20:22:55.053Z,996.2
2022-11-21T20:37:51.464Z,996.1
2022-11-21T21:07:43.867Z,995.9
2022-11-21T21:22:39.729Z,995.8
2022-11-21T21:37:35.918Z,995.6
2022-11-21T21:52:32.314Z,995.4
2022-11-21T23:07:12.555Z,995.1
2022-11-21T23:22:08.649Z,995.3
2022-11-21T23:37:04.519Z,995.3
2022-11-21T23:52:01.127Z,995.1
